createdAt,value
2022-12-03T08:07:44.127Z,12.92
2022-12-03T08:10:12.385Z,13.07
2022-12-03T08:12:45.938Z,13.18
2022-12-03T08:15:14.007Z,13.20
2022-12-03T08:17:42.644Z,13.25
2022-12-03T08:20:20.431Z,13.24
2022-12-03T08:22:49.995Z,13.25
2022-12-03T08:25:20.492Z,13.29
2022-12-03T08:27:48.575Z,13.38
2022-12-03T08:30:16.452Z,13.38
2022-12-03T08:32:44.432Z,13.33
2022-12-03T08:35:32.286Z,13.34
2022-12-03T08:38:02.587Z,13.47
2022-12-03T08:40:35.810Z,13.42
2022-12-03T08:43:19.145Z,13.28
2022-12-03T08:45:49.826Z,13.34
2022-12-03T08:48:23.501Z,13.34
2022-12-03T08:50:51.381Z,13.40
2022-12-03T08:53:29.584Z,13.43
2022-12-03T08:56:01.432Z,13.41
2022-12-03T08:58:39.407Z,13.50
2022-12-03T09:01:10.717Z,13.48
2022-12-03T09:03:47.171Z,13.51
2022-12-03T09:06:14.891Z,13.60
2022-12-03T09:08:42.829Z,13.70
2022-12-03T09:11:10.968Z,13.70
2022-12-03T09:13:38.906Z,13.71
2022-12-03T09:16:06.842Z,13.71
2022-12-03T09:18:34.510Z,13.76
2022-12-03T09:21:02.173Z,13.97
2022-12-03T09:23:30.093Z,13.85
2022-12-03T09:25:59.835Z,13.84
2022-12-03T09:28:27.489Z,13.92
2022-12-03T09:30:55.450Z,13.85
2022-12-03T09:33:23.301Z,13.77
2022-12-03T09:35:51.374Z,13.87
2022-12-03T09:38:19.133Z,13.86
2022-12-03T09:40:47.182Z,13.93
2022-12-03T09:43:14.839Z,13.87
2022-12-03T09:45:45.633Z,13.84
2022-12-03T09:48:15.243Z,13.83
2022-12-03T09:50:42.946Z,13.85
2022-12-03T09:53:18.315Z,13.83
2022-12-03T09:55:46.691Z,13.81
2022-12-03T09:58:16.503Z,13.81
2022-12-03T10:00:49.101Z,13.93
2022-12-03T10:03:18.288Z,13.84
2022-12-03T10:05:48.161Z,13.87
2022-12-03T10:08:21.047Z,13.84
2022-12-03T10:10:54.231Z,13.87
2022-12-03T10:13:31.362Z,13.92
2022-12-03T10:15:59.797Z,13.99
2022-12-03T10:18:30.811Z,13.92
2022-12-03T10:20:58.942Z,13.96
2022-12-03T10:23:28.206Z,13.89
2022-12-03T10:26:05.395Z,13.92
2022-12-03T10:28:34.957Z,13.96
2022-12-03T10:31:04.763Z,14.01
2022-12-03T10:33:34.577Z,14.08
2022-12-03T10:36:18.670Z,14.21
2022-12-03T10:38:47.474Z,14.36
2022-12-03T10:41:28.117Z,14.21
2022-12-03T10:44:15.722Z,13.99
2022-12-03T10:46:44.286Z,14.02
2022-12-03T10:49:18.713Z,13.91
2022-12-03T10:51:46.720Z,13.99
2022-12-03T10:54:24.195Z,14.14
2022-12-03T10:56:52.415Z,14.20
2022-12-03T10:59:22.101Z,14.44
2022-12-03T11:01:50.375Z,14.61
2022-12-03T11:04:30.925Z,14.71
2022-12-03T11:06:58.575Z,14.58
2022-12-03T11:09:28.482Z,14.43
2022-12-03T11:11:56.267Z,14.34
2022-12-03T11:14:49.089Z,14.47
2022-12-03T11:17:45.396Z,14.60
2022-12-03T11:20:25.257Z,14.20
2022-12-03T11:22:56.242Z,14.06
2022-12-03T11:25:27.231Z,14.05
2022-12-03T11:28:27.610Z,14.11
2022-12-03T11:31:02.483Z,14.20
2022-12-03T11:33:34.614Z,14.21
2022-12-03T11:36:05.625Z,14.25
2022-12-03T11:38:52.387Z,14.37
2022-12-03T11:41:29.061Z,14.49
2022-12-03T11:44:26.357Z,14.38
2022-12-03T11:46:54.142Z,14.48
2022-12-03T11:49:36.468Z,14.37
2022-12-03T11:52:18.171Z,14.46
2022-12-03T11:54:45.920Z,14.53
2022-12-03T11:57:33.068Z,14.65
2022-12-03T12:00:05.396Z,14.55
2022-12-03T12:02:39.718Z,14.56
2022-12-03T12:05:18.884Z,14.49
2022-12-03T12:07:48.268Z,14.49
2022-12-03T12:10:44.262Z,14.47
2022-12-03T12:13:30.722Z,14.47
2022-12-03T12:15:59.456Z,14.46
2022-12-03T12:18:46.713Z,14.49
2022-12-03T12:21:42.999Z,14.65
2022-12-03T12:24:32.438Z,14.78
2022-12-03T12:27:07.013Z,14.75
2022-12-03T12:29:35.428Z,14.84
2022-12-03T12:32:09.613Z,14.76
2022-12-03T12:34:38.588Z,14.78
2022-12-03T12:37:14.614Z,14.68
2022-12-03T12:39:43.671Z,14.70
2022-12-03T12:42:30.735Z,14.76
2022-12-03T12:45:19.688Z,14.65
2022-12-03T12:48:13.622Z,14.65
2022-12-03T12:50:42.704Z,14.71
2022-12-03T12:53:25.690Z,14.75
2022-12-03T12:56:25.790Z,14.63
2022-12-03T12:58:54.108Z,14.68
2022-12-03T13:01:25.246Z,14.63
2022-12-03T13:03:53.157Z,14.56
2022-12-03T13:06:28.365Z,14.56
2022-12-03T13:08:56.137Z,14.52
2022-12-03T13:11:23.694Z,14.54
2022-12-03T13:13:51.803Z,14.55
2022-12-03T13:16:23.452Z,14.55
2022-12-03T13:18:55.950Z,14.45
2022-12-03T13:21:45.218Z,14.54
2022-12-03T13:24:32.625Z,14.47
2022-12-03T13:27:13.829Z,14.52
2022-12-03T13:29:41.708Z,14.53
2022-12-03T13:32:22.745Z,14.42
2022-12-03T13:34:50.843Z,14.40
2022-12-03T13:37:26.916Z,14.34
2022-12-03T13:39:58.096Z,14.20
2022-12-03T13:42:39.661Z,14.12
2022-12-03T13:45:15.109Z,14.06
2022-12-03T13:47:56.954Z,13.97
2022-12-03T13:50:37.031Z,13.92
2022-12-03T13:53:27.887Z,13.91
2022-12-03T13:56:15.854Z,13.84
2022-12-03T13:58:43.745Z,13.86
2022-12-03T14:01:11.654Z,13.88
2022-12-03T14:03:39.513Z,13.83
2022-12-03T14:06:07.366Z,13.76
2022-12-03T14:08:35.149Z,13.65
2022-12-03T14:11:02.917Z,13.60
2022-12-03T14:13:30.535Z,13.55
2022-12-03T14:15:58.173Z,13.53
2022-12-03T14:18:26.028Z,13.52
2022-12-03T14:20:53.626Z,13.54
2022-12-03T14:23:21.347Z,13.60
2022-12-03T14:25:49.049Z,13.63
2022-12-03T14:28:17.161Z,13.69
2022-12-03T14:30:44.846Z,13.72
2022-12-03T14:33:12.695Z,13.76
2022-12-03T14:35:40.361Z,13.78
2022-12-03T14:38:08.273Z,13.80
2022-12-03T14:40:35.908Z,13.83
2022-12-03T14:43:03.609Z,13.86
2022-12-03T14:45:31.259Z,13.90
2022-12-03T14:47:59.036Z,13.96
2022-12-03T14:50:26.720Z,13.98
2022-12-03T14:52:54.393Z,13.99
2022-12-03T14:55:22.067Z,13.98
2022-12-03T14:57:49.770Z,13.97
2022-12-03T15:00:18.045Z,14.04
2022-12-03T15:02:45.929Z,14.05
2022-12-03T15:05:13.610Z,14.06
2022-12-03T15:07:41.422Z,14.04
2022-12-03T15:10:09.552Z,14.00
2022-12-03T15:12:37.313Z,14.00
2022-12-03T15:18:18.810Z,13.85
2022-12-03T15:20:46.968Z,13.86
2022-12-03T15:23:15.022Z,13.85
2022-12-03T15:25:42.817Z,13.84
2022-12-03T15:28:10.548Z,13.85
2022-12-03T15:30:38.397Z,13.86
2022-12-03T15:33:06.587Z,13.87
2022-12-03T15:35:34.563Z,13.85
2022-12-03T15:38:02.333Z,13.80
2022-12-03T15:40:30.367Z,13.77
2022-12-03T15:42:58.374Z,13.81
2022-12-03T15:45:26.225Z,13.80
